首页
METAR-TAF:

METAR-TAF

机场 :

圣皮埃尔, 圣皮埃尔和密克隆

纬度: 46-46N, 经度: 056-10W, 海拔: 3米

当前天气观测

该预报发布于52分钟前的09:00 UTC
风速6节,风向西南
温度 10°C
湿度 100%
气压 1023 hPa
能見度: 9000

METAR: LFVP 190900Z AUTO 23006KT 9000 NSC 10/10 Q1023 NOSIG

时间: 07:52 (09:52 UTC)

预报

该预报发布于1小时和52分钟前的08:00 UTC
预报有效从19日的 09点(UTC)到 19日的 18点(UTC)
风速10节,风向西转西南
能见度10公里或以上
几率 40% :
短暂存在
从 19日的 12点(UTC)到 19日的 18点(UTC)
能見度: 4000
轻雾,

TAF: LFVP 190800Z 1909/1918 24010KT 9999 NSC PROB40 TEMPO 1912/1918 4000 BR

超过4000个机场的气象观测和天气预报(METAR&TAF报告)。

可查询的气象台以黄色和红色小点在地图上表示。

将鼠标移到小点上方,可查看气象台名称。

然后点击查看天气观测和预报。

如需切换地图:点击带黑十字的绿色按钮放大地图;点击带横线的绿色按钮缩小地图;或者点击绿色箭头查看邻近地区的地图。


METAR-TAF: